sensor_id;sensor_type;location;lat;lon;timestamp;P1;durP1;ratioP1;P2;durP2;ratioP2
18905;SDS011;9585;51.018;4.282;2023-06-04T00:02:25;1.00;;;0.80;;
18905;SDS011;9585;51.018;4.282;2023-06-04T00:04:54;1.73;;;1.00;;
18905;SDS011;9585;51.018;4.282;2023-06-04T00:07:22;1.83;;;0.88;;
18905;SDS011;9585;51.018;4.282;2023-06-04T00:09:50;1.65;;;0.90;;
18905;SDS011;9585;51.018;4.282;2023-06-04T00:12:18;2.40;;;1.00;;
18905;SDS011;9585;51.018;4.282;2023-06-04T00:14:46;2.25;;;1.20;;
18905;SDS011;9585;51.018;4.282;2023-06-04T00:17:13;2.38;;;1.35;;
18905;SDS011;9585;51.018;4.282;2023-06-04T00:19:41;1.67;;;1.30;;
18905;SDS011;9585;51.018;4.282;2023-06-04T00:22:10;1.92;;;1.35;;
18905;SDS011;9585;51.018;4.282;2023-06-04T00:24:37;2.85;;;1.30;;
18905;SDS011;9585;51.018;4.282;2023-06-04T00:27:06;2.75;;;1.40;;
18905;SDS011;9585;51.018;4.282;2023-06-04T00:29:34;2.03;;;1.48;;
18905;SDS011;9585;51.018;4.282;2023-06-04T00:32:01;1.80;;;1.50;;
18905;SDS011;9585;51.018;4.282;2023-06-04T00:34:29;2.00;;;1.25;;
18905;SDS011;9585;51.018;4.282;2023-06-04T00:36:57;3.15;;;1.80;;
18905;SDS011;9585;51.018;4.282;2023-06-04T00:39:28;1.75;;;1.42;;
18905;SDS011;9585;51.018;4.282;2023-06-04T00:41:55;2.20;;;1.40;;
18905;SDS011;9585;51.018;4.282;2023-06-04T00:44:23;1.83;;;1.45;;
18905;SDS011;9585;51.018;4.282;2023-06-04T00:46:51;2.83;;;1.40;;
18905;SDS011;9585;51.018;4.282;2023-06-04T00:49:19;1.50;;;1.30;;
18905;SDS011;9585;51.018;4.282;2023-06-04T00:51:47;1.80;;;1.33;;
18905;SDS011;9585;51.018;4.282;2023-06-04T00:54:15;2.83;;;1.33;;
18905;SDS011;9585;51.018;4.282;2023-06-04T00:56:46;2.25;;;1.40;;
18905;SDS011;9585;51.018;4.282;2023-06-04T00:59:14;3.22;;;1.70;;
18905;SDS011;9585;51.018;4.282;2023-06-04T01:01:44;2.03;;;1.80;;
18905;SDS011;9585;51.018;4.282;2023-06-04T01:04:21;2.88;;;1.80;;
18905;SDS011;9585;51.018;4.282;2023-06-04T01:06:54;2.13;;;1.60;;
18905;SDS011;9585;51.018;4.282;2023-06-04T01:09:24;3.03;;;1.80;;
18905;SDS011;9585;51.018;4.282;2023-06-04T01:11:54;2.95;;;1.77;;
18905;SDS011;9585;51.018;4.282;2023-06-04T01:14:23;3.13;;;1.60;;
18905;SDS011;9585;51.018;4.282;2023-06-04T01:16:53;1.75;;;1.38;;
18905;SDS011;9585;51.018;4.282;2023-06-04T01:19:44;2.55;;;1.35;;
18905;SDS011;9585;51.018;4.282;2023-06-04T01:22:36;2.40;;;1.55;;
18905;SDS011;9585;51.018;4.282;2023-06-04T01:25:10;2.50;;;1.60;;
18905;SDS011;9585;51.018;4.282;2023-06-04T01:27:46;1.77;;;1.40;;
18905;SDS011;9585;51.018;4.282;2023-06-04T01:30:18;1.52;;;1.38;;
18905;SDS011;9585;51.018;4.282;2023-06-04T01:32:49;2.25;;;1.40;;
18905;SDS011;9585;51.018;4.282;2023-06-04T01:35:17;1.98;;;1.48;;
18905;SDS011;9585;51.018;4.282;2023-06-04T01:37:44;3.95;;;1.50;;
18905;SDS011;9585;51.018;4.282;2023-06-04T01:40:12;2.15;;;1.60;;
18905;SDS011;9585;51.018;4.282;2023-06-04T01:42:40;2.67;;;1.60;;
18905;SDS011;9585;51.018;4.282;2023-06-04T01:45:10;1.88;;;1.40;;
18905;SDS011;9585;51.018;4.282;2023-06-04T01:47:37;3.03;;;1.40;;
18905;SDS011;9585;51.018;4.282;2023-06-04T01:50:08;2.53;;;1.45;;
18905;SDS011;9585;51.018;4.282;2023-06-04T01:52:36;3.38;;;1.90;;
18905;SDS011;9585;51.018;4.282;2023-06-04T01:55:04;2.45;;;1.60;;
18905;SDS011;9585;51.018;4.282;2023-06-04T01:57:33;1.80;;;1.42;;
18905;SDS011;9585;51.018;4.282;2023-06-04T02:00:00;2.00;;;1.60;;
18905;SDS011;9585;51.018;4.282;2023-06-04T02:02:30;3.28;;;1.45;;
18905;SDS011;9585;51.018;4.282;2023-06-04T02:04:58;1.98;;;1.40;;
18905;SDS011;9585;51.018;4.282;2023-06-04T02:07:25;2.08;;;1.42;;
18905;SDS011;9585;51.018;4.282;2023-06-04T02:09:56;2.70;;;1.70;;
18905;SDS011;9585;51.018;4.282;2023-06-04T02:12:27;2.80;;;1.52;;
18905;SDS011;9585;51.018;4.282;2023-06-04T02:14:54;1.95;;;1.50;;
18905;SDS011;9585;51.018;4.282;2023-06-04T02:17:21;1.85;;;1.60;;
18905;SDS011;9585;51.018;4.282;2023-06-04T02:19:50;3.00;;;1.60;;
18905;SDS011;9585;51.018;4.282;2023-06-04T02:22:18;2.03;;;1.35;;
18905;SDS011;9585;51.018;4.282;2023-06-04T02:24:47;2.33;;;1.63;;
18905;SDS011;9585;51.018;4.282;2023-06-04T02:27:17;2.08;;;1.50;;
18905;SDS011;9585;51.018;4.282;2023-06-04T02:29:45;2.42;;;1.83;;
18905;SDS011;9585;51.018;4.282;2023-06-04T02:32:13;3.22;;;1.70;;
18905;SDS011;9585;51.018;4.282;2023-06-04T02:34:40;2.60;;;1.35;;
18905;SDS011;9585;51.018;4.282;2023-06-04T02:37:12;3.28;;;1.75;;
18905;SDS011;9585;51.018;4.282;2023-06-04T02:39:40;4.82;;;1.48;;
18905;SDS011;9585;51.018;4.282;2023-06-04T02:42:07;3.22;;;1.90;;
18905;SDS011;9585;51.018;4.282;2023-06-04T02:44:35;4.18;;;1.60;;
18905;SDS011;9585;51.018;4.282;2023-06-04T02:47:02;3.10;;;1.85;;
18905;SDS011;9585;51.018;4.282;2023-06-04T02:49:30;2.10;;;1.60;;
18905;SDS011;9585;51.018;4.282;2023-06-04T02:51:57;3.95;;;1.90;;
18905;SDS011;9585;51.018;4.282;2023-06-04T02:54:26;1.85;;;1.50;;
18905;SDS011;9585;51.018;4.282;2023-06-04T02:56:54;4.38;;;1.80;;
18905;SDS011;9585;51.018;4.282;2023-06-04T02:59:21;2.55;;;1.70;;
18905;SDS011;9585;51.018;4.282;2023-06-04T03:01:49;2.50;;;1.63;;
18905;SDS011;9585;51.018;4.282;2023-06-04T03:04:17;2.55;;;2.10;;
18905;SDS011;9585;51.018;4.282;2023-06-04T03:06:45;1.77;;;1.33;;
18905;SDS011;9585;51.018;4.282;2023-06-04T03:09:13;4.15;;;1.48;;
18905;SDS011;9585;51.018;4.282;2023-06-04T03:11:42;2.28;;;1.60;;
18905;SDS011;9585;51.018;4.282;2023-06-04T03:14:09;2.78;;;1.85;;
18905;SDS011;9585;51.018;4.282;2023-06-04T03:16:37;2.85;;;1.70;;
18905;SDS011;9585;51.018;4.282;2023-06-04T03:19:08;2.58;;;1.80;;
18905;SDS011;9585;51.018;4.282;2023-06-04T03:21:36;2.95;;;1.98;;
18905;SDS011;9585;51.018;4.282;2023-06-04T03:24:05;2.25;;;1.63;;
18905;SDS011;9585;51.018;4.282;2023-06-04T03:26:32;3.85;;;1.60;;
18905;SDS011;9585;51.018;4.282;2023-06-04T03:29:01;2.28;;;1.60;;
18905;SDS011;9585;51.018;4.282;2023-06-04T03:31:29;2.83;;;1.70;;
18905;SDS011;9585;51.018;4.282;2023-06-04T03:33:57;2.85;;;1.80;;
18905;SDS011;9585;51.018;4.282;2023-06-04T03:36:25;2.28;;;1.70;;
18905;SDS011;9585;51.018;4.282;2023-06-04T03:38:56;3.10;;;1.98;;
18905;SDS011;9585;51.018;4.282;2023-06-04T03:41:24;2.72;;;1.70;;
18905;SDS011;9585;51.018;4.282;2023-06-04T03:43:52;2.58;;;1.90;;
18905;SDS011;9585;51.018;4.282;2023-06-04T03:46:23;3.58;;;1.90;;
18905;SDS011;9585;51.018;4.282;2023-06-04T03:48:54;4.10;;;1.90;;
18905;SDS011;9585;51.018;4.282;2023-06-04T03:51:21;4.78;;;2.15;;
18905;SDS011;9585;51.018;4.282;2023-06-04T03:53:48;3.05;;;1.75;;
18905;SDS011;9585;51.018;4.282;2023-06-04T03:56:16;3.03;;;1.85;;
18905;SDS011;9585;51.018;4.282;2023-06-04T03:58:43;3.83;;;1.75;;
18905;SDS011;9585;51.018;4.282;2023-06-04T04:01:11;2.65;;;1.92;;
18905;SDS011;9585;51.018;4.282;2023-06-04T04:03:40;1.77;;;1.60;;
18905;SDS011;9585;51.018;4.282;2023-06-04T04:06:09;2.78;;;1.60;;
18905;SDS011;9585;51.018;4.282;2023-06-04T04:08:36;2.95;;;2.10;;
18905;SDS011;9585;51.018;4.282;2023-06-04T04:11:08;3.47;;;1.70;;
18905;SDS011;9585;51.018;4.282;2023-06-04T04:13:39;2.15;;;1.70;;
18905;SDS011;9585;51.018;4.282;2023-06-04T04:16:06;4.75;;;1.70;;
18905;SDS011;9585;51.018;4.282;2023-06-04T04:18:35;4.45;;;1.88;;
18905;SDS011;9585;51.018;4.282;2023-06-04T04:21:04;3.55;;;2.00;;
18905;SDS011;9585;51.018;4.282;2023-06-04T04:23:32;1.95;;;1.70;;
18905;SDS011;9585;51.018;4.282;2023-06-04T04:26:00;3.78;;;1.88;;
18905;SDS011;9585;51.018;4.282;2023-06-04T04:28:28;2.60;;;1.98;;
18905;SDS011;9585;51.018;4.282;2023-06-04T04:30:57;2.40;;;1.70;;
18905;SDS011;9585;51.018;4.282;2023-06-04T04:33:27;3.25;;;2.00;;
18905;SDS011;9585;51.018;4.282;2023-06-04T04:35:58;2.42;;;1.70;;
18905;SDS011;9585;51.018;4.282;2023-06-04T04:38:28;3.60;;;1.85;;
18905;SDS011;9585;51.018;4.282;2023-06-04T04:40:59;4.15;;;2.08;;
18905;SDS011;9585;51.018;4.282;2023-06-04T04:43:29;3.42;;;1.83;;
18905;SDS011;9585;51.018;4.282;2023-06-04T04:45:57;2.42;;;1.65;;
18905;SDS011;9585;51.018;4.282;2023-06-04T04:48:25;2.83;;;1.83;;
18905;SDS011;9585;51.018;4.282;2023-06-04T04:50:53;4.43;;;1.98;;
18905;SDS011;9585;51.018;4.282;2023-06-04T04:53:21;2.25;;;1.92;;
18905;SDS011;9585;51.018;4.282;2023-06-04T04:55:50;2.67;;;1.60;;
18905;SDS011;9585;51.018;4.282;2023-06-04T04:58:18;2.25;;;1.70;;
18905;SDS011;9585;51.018;4.282;2023-06-04T05:00:45;2.60;;;1.75;;
18905;SDS011;9585;51.018;4.282;2023-06-04T05:03:13;2.33;;;1.70;;
18905;SDS011;9585;51.018;4.282;2023-06-04T05:05:41;6.05;;;1.90;;
18905;SDS011;9585;51.018;4.282;2023-06-04T05:08:08;2.47;;;1.92;;
18905;SDS011;9585;51.018;4.282;2023-06-04T05:10:36;4.47;;;1.80;;
18905;SDS011;9585;51.018;4.282;2023-06-04T05:13:05;2.65;;;1.90;;
18905;SDS011;9585;51.018;4.282;2023-06-04T05:15:34;3.50;;;2.00;;
18905;SDS011;9585;51.018;4.282;2023-06-04T05:18:02;2.65;;;1.80;;
18905;SDS011;9585;51.018;4.282;2023-06-04T05:20:30;3.67;;;1.70;;
18905;SDS011;9585;51.018;4.282;2023-06-04T05:23:00;2.65;;;1.83;;
18905;SDS011;9585;51.018;4.282;2023-06-04T05:25:29;2.53;;;1.60;;
18905;SDS011;9585;51.018;4.282;2023-06-04T05:27:57;1.85;;;1.65;;
18905;SDS011;9585;51.018;4.282;2023-06-04T05:30:26;2.35;;;1.73;;
18905;SDS011;9585;51.018;4.282;2023-06-04T05:32:53;3.05;;;2.00;;
18905;SDS011;9585;51.018;4.282;2023-06-04T05:35:21;3.38;;;1.98;;
18905;SDS011;9585;51.018;4.282;2023-06-04T05:37:49;3.78;;;1.90;;
18905;SDS011;9585;51.018;4.282;2023-06-04T05:40:19;4.18;;;1.92;;
18905;SDS011;9585;51.018;4.282;2023-06-04T05:42:50;1.92;;;1.73;;
18905;SDS011;9585;51.018;4.282;2023-06-04T05:45:18;3.50;;;1.55;;
18905;SDS011;9585;51.018;4.282;2023-06-04T05:47:47;1.70;;;1.60;;
18905;SDS011;9585;51.018;4.282;2023-06-04T05:50:15;2.92;;;1.75;;
18905;SDS011;9585;51.018;4.282;2023-06-04T05:52:42;3.63;;;1.60;;
18905;SDS011;9585;51.018;4.282;2023-06-04T05:55:10;2.33;;;1.60;;
18905;SDS011;9585;51.018;4.282;2023-06-04T05:57:37;3.00;;;1.63;;
18905;SDS011;9585;51.018;4.282;2023-06-04T06:00:05;1.75;;;1.50;;
18905;SDS011;9585;51.018;4.282;2023-06-04T06:02:36;2.78;;;1.80;;
18905;SDS011;9585;51.018;4.282;2023-06-04T06:05:06;2.10;;;1.63;;
18905;SDS011;9585;51.018;4.282;2023-06-04T06:07:34;3.65;;;1.70;;
18905;SDS011;9585;51.018;4.282;2023-06-04T06:10:02;3.75;;;1.70;;
18905;SDS011;9585;51.018;4.282;2023-06-04T06:12:30;1.50;;;1.40;;
18905;SDS011;9585;51.018;4.282;2023-06-04T06:14:58;2.00;;;1.40;;
18905;SDS011;9585;51.018;4.282;2023-06-04T06:17:25;3.33;;;1.92;;
18905;SDS011;9585;51.018;4.282;2023-06-04T06:19:54;2.88;;;1.60;;
18905;SDS011;9585;51.018;4.282;2023-06-04T06:22:23;3.17;;;1.30;;
18905;SDS011;9585;51.018;4.282;2023-06-04T06:24:50;3.92;;;1.38;;
18905;SDS011;9585;51.018;4.282;2023-06-04T06:27:18;3.63;;;1.83;;
18905;SDS011;9585;51.018;4.282;2023-06-04T06:29:46;2.30;;;1.50;;
18905;SDS011;9585;51.018;4.282;2023-06-04T06:32:14;2.80;;;1.70;;
18905;SDS011;9585;51.018;4.282;2023-06-04T06:34:41;2.58;;;1.65;;
18905;SDS011;9585;51.018;4.282;2023-06-04T06:37:09;1.95;;;1.20;;
18905;SDS011;9585;51.018;4.282;2023-06-04T06:39:38;4.65;;;1.55;;
18905;SDS011;9585;51.018;4.282;2023-06-04T06:42:05;1.85;;;1.45;;
18905;SDS011;9585;51.018;4.282;2023-06-04T06:44:33;4.90;;;1.50;;
18905;SDS011;9585;51.018;4.282;2023-06-04T06:47:03;2.40;;;1.40;;
18905;SDS011;9585;51.018;4.282;2023-06-04T06:49:33;2.17;;;1.55;;
18905;SDS011;9585;51.018;4.282;2023-06-04T06:52:01;2.53;;;1.35;;
18905;SDS011;9585;51.018;4.282;2023-06-04T06:54:32;1.70;;;1.58;;
18905;SDS011;9585;51.018;4.282;2023-06-04T06:57:01;2.78;;;1.35;;
18905;SDS011;9585;51.018;4.282;2023-06-04T06:59:34;2.10;;;1.52;;
18905;SDS011;9585;51.018;4.282;2023-06-04T07:02:02;1.77;;;1.40;;
18905;SDS011;9585;51.018;4.282;2023-06-04T07:04:30;2.42;;;1.40;;
18905;SDS011;9585;51.018;4.282;2023-06-04T07:06:58;3.30;;;1.60;;
18905;SDS011;9585;51.018;4.282;2023-06-04T07:09:25;2.30;;;1.70;;
18905;SDS011;9585;51.018;4.282;2023-06-04T07:11:53;3.00;;;1.50;;
18905;SDS011;9585;51.018;4.282;2023-06-04T07:14:23;1.67;;;1.20;;
18905;SDS011;9585;51.018;4.282;2023-06-04T07:16:51;1.92;;;1.30;;
18905;SDS011;9585;51.018;4.282;2023-06-04T07:19:19;1.98;;;1.48;;
18905;SDS011;9585;51.018;4.282;2023-06-04T07:21:47;1.83;;;1.15;;
18905;SDS011;9585;51.018;4.282;2023-06-04T07:24:18;3.42;;;1.58;;
18905;SDS011;9585;51.018;4.282;2023-06-04T07:26:46;1.67;;;1.35;;
18905;SDS011;9585;51.018;4.282;2023-06-04T07:29:14;2.70;;;1.52;;
18905;SDS011;9585;51.018;4.282;2023-06-04T07:31:45;2.05;;;1.35;;
18905;SDS011;9585;51.018;4.282;2023-06-04T07:34:13;2.05;;;1.48;;
18905;SDS011;9585;51.018;4.282;2023-06-04T07:36:41;1.40;;;1.30;;
18905;SDS011;9585;51.018;4.282;2023-06-04T07:39:08;2.03;;;1.20;;
18905;SDS011;9585;51.018;4.282;2023-06-04T07:41:36;3.47;;;1.30;;
18905;SDS011;9585;51.018;4.282;2023-06-04T07:44:04;3.58;;;1.20;;
18905;SDS011;9585;51.018;4.282;2023-06-04T07:46:32;2.05;;;1.20;;
18905;SDS011;9585;51.018;4.282;2023-06-04T07:49:01;2.33;;;1.10;;
18905;SDS011;9585;51.018;4.282;2023-06-04T07:51:28;1.95;;;1.50;;
18905;SDS011;9585;51.018;4.282;2023-06-04T07:53:56;1.60;;;1.15;;
18905;SDS011;9585;51.018;4.282;2023-06-04T07:56:24;4.05;;;1.50;;
18905;SDS011;9585;51.018;4.282;2023-06-04T07:58:53;1.63;;;1.13;;
18905;SDS011;9585;51.018;4.282;2023-06-04T08:01:24;1.27;;;1.08;;
18905;SDS011;9585;51.018;4.282;2023-06-04T08:03:52;1.67;;;1.42;;
18905;SDS011;9585;51.018;4.282;2023-06-04T08:06:21;2.80;;;1.30;;
18905;SDS011;9585;51.018;4.282;2023-06-04T08:08:49;1.38;;;1.10;;
18905;SDS011;9585;51.018;4.282;2023-06-04T08:11:17;3.40;;;1.20;;
18905;SDS011;9585;51.018;4.282;2023-06-04T08:13:48;1.65;;;1.08;;
18905;SDS011;9585;51.018;4.282;2023-06-04T08:16:25;2.03;;;1.00;;
18905;SDS011;9585;51.018;4.282;2023-06-04T08:18:53;1.40;;;1.20;;
18905;SDS011;9585;51.018;4.282;2023-06-04T08:21:28;1.25;;;1.10;;
18905;SDS011;9585;51.018;4.282;2023-06-04T08:23:56;3.03;;;1.02;;
18905;SDS011;9585;51.018;4.282;2023-06-04T08:26:24;2.97;;;1.50;;
18905;SDS011;9585;51.018;4.282;2023-06-04T08:28:52;1.83;;;1.40;;
18905;SDS011;9585;51.018;4.282;2023-06-04T08:31:20;2.40;;;1.23;;
18905;SDS011;9585;51.018;4.282;2023-06-04T08:33:48;2.47;;;1.20;;
18905;SDS011;9585;51.018;4.282;2023-06-04T08:36:15;2.92;;;1.08;;
18905;SDS011;9585;51.018;4.282;2023-06-04T08:38:45;5.28;;;1.10;;
18905;SDS011;9585;51.018;4.282;2023-06-04T08:41:16;4.00;;;1.20;;
18905;SDS011;9585;51.018;4.282;2023-06-04T08:43:50;2.47;;;1.10;;
18905;SDS011;9585;51.018;4.282;2023-06-04T08:46:22;4.38;;;1.10;;
18905;SDS011;9585;51.018;4.282;2023-06-04T08:48:50;2.28;;;1.20;;
18905;SDS011;9585;51.018;4.282;2023-06-04T08:51:19;3.15;;;1.13;;
18905;SDS011;9585;51.018;4.282;2023-06-04T08:53:48;1.95;;;1.00;;
18905;SDS011;9585;51.018;4.282;2023-06-04T08:56:19;2.50;;;1.10;;
18905;SDS011;9585;51.018;4.282;2023-06-04T08:58:47;1.85;;;1.10;;
18905;SDS011;9585;51.018;4.282;2023-06-04T09:01:15;3.45;;;1.20;;
18905;SDS011;9585;51.018;4.282;2023-06-04T09:03:44;1.33;;;1.00;;
18905;SDS011;9585;51.018;4.282;2023-06-04T09:06:11;5.20;;;1.10;;
18905;SDS011;9585;51.018;4.282;2023-06-04T09:08:40;5.00;;;1.10;;
18905;SDS011;9585;51.018;4.282;2023-06-04T09:11:13;2.15;;;0.95;;
18905;SDS011;9585;51.018;4.282;2023-06-04T09:13:45;2.53;;;1.05;;
18905;SDS011;9585;51.018;4.282;2023-06-04T09:16:14;1.77;;;1.20;;
18905;SDS011;9585;51.018;4.282;2023-06-04T09:18:44;1.13;;;0.93;;
18905;SDS011;9585;51.018;4.282;2023-06-04T09:21:14;1.40;;;0.88;;
18905;SDS011;9585;51.018;4.282;2023-06-04T09:23:48;2.42;;;1.10;;
18905;SDS011;9585;51.018;4.282;2023-06-04T09:26:17;2.10;;;0.93;;
18905;SDS011;9585;51.018;4.282;2023-06-04T09:28:44;3.88;;;1.20;;
18905;SDS011;9585;51.018;4.282;2023-06-04T09:31:14;2.45;;;1.15;;
18905;SDS011;9585;51.018;4.282;2023-06-04T09:33:42;1.52;;;0.90;;
18905;SDS011;9585;51.018;4.282;2023-06-04T09:36:11;1.27;;;1.00;;
18905;SDS011;9585;51.018;4.282;2023-06-04T09:38:42;6.38;;;1.20;;
18905;SDS011;9585;51.018;4.282;2023-06-04T09:41:11;1.42;;;1.00;;
18905;SDS011;9585;51.018;4.282;2023-06-04T09:43:41;1.58;;;1.20;;
18905;SDS011;9585;51.018;4.282;2023-06-04T09:46:09;2.55;;;1.00;;
18905;SDS011;9585;51.018;4.282;2023-06-04T09:48:41;2.28;;;0.98;;
18905;SDS011;9585;51.018;4.282;2023-06-04T09:51:09;3.30;;;1.20;;
18905;SDS011;9585;51.018;4.282;2023-06-04T09:53:37;2.10;;;0.93;;
18905;SDS011;9585;51.018;4.282;2023-06-04T09:56:08;3.05;;;1.20;;
18905;SDS011;9585;51.018;4.282;2023-06-04T09:58:44;1.17;;;1.00;;
18905;SDS011;9585;51.018;4.282;2023-06-04T10:01:14;1.60;;;0.82;;
18905;SDS011;9585;51.018;4.282;2023-06-04T10:03:42;3.35;;;1.10;;
18905;SDS011;9585;51.018;4.282;2023-06-04T10:06:14;3.20;;;1.20;;
18905;SDS011;9585;51.018;4.282;2023-06-04T10:08:44;3.67;;;1.13;;
18905;SDS011;9585;51.018;4.282;2023-06-04T10:11:13;2.20;;;1.20;;
18905;SDS011;9585;51.018;4.282;2023-06-04T10:13:52;2.25;;;1.10;;
18905;SDS011;9585;51.018;4.282;2023-06-04T10:16:24;1.73;;;1.00;;
18905;SDS011;9585;51.018;4.282;2023-06-04T10:18:53;3.20;;;1.15;;
18905;SDS011;9585;51.018;4.282;2023-06-04T10:21:21;2.60;;;1.05;;
18905;SDS011;9585;51.018;4.282;2023-06-04T10:23:50;2.45;;;1.30;;
18905;SDS011;9585;51.018;4.282;2023-06-04T10:26:24;2.20;;;0.93;;
18905;SDS011;9585;51.018;4.282;2023-06-04T10:29:00;2.00;;;0.90;;
18905;SDS011;9585;51.018;4.282;2023-06-04T10:31:29;3.03;;;0.90;;
18905;SDS011;9585;51.018;4.282;2023-06-04T10:33:57;2.42;;;1.17;;
18905;SDS011;9585;51.018;4.282;2023-06-04T10:36:25;2.60;;;0.80;;
18905;SDS011;9585;51.018;4.282;2023-06-04T10:38:54;2.60;;;0.90;;
18905;SDS011;9585;51.018;4.282;2023-06-04T10:41:22;1.83;;;1.08;;
18905;SDS011;9585;51.018;4.282;2023-06-04T10:43:51;1.15;;;0.80;;
18905;SDS011;9585;51.018;4.282;2023-06-04T10:46:37;1.17;;;0.90;;
18905;SDS011;9585;51.018;4.282;2023-06-04T10:49:08;3.47;;;1.10;;
18905;SDS011;9585;51.018;4.282;2023-06-04T10:51:37;1.25;;;0.90;;
18905;SDS011;9585;51.018;4.282;2023-06-04T10:54:06;2.25;;;0.90;;
18905;SDS011;9585;51.018;4.282;2023-06-04T10:56:34;2.30;;;0.95;;
18905;SDS011;9585;51.018;4.282;2023-06-04T10:59:12;1.48;;;0.88;;
18905;SDS011;9585;51.018;4.282;2023-06-04T11:01:42;2.88;;;0.98;;
18905;SDS011;9585;51.018;4.282;2023-06-04T11:04:20;1.30;;;0.75;;
18905;SDS011;9585;51.018;4.282;2023-06-04T11:06:48;1.42;;;0.80;;
18905;SDS011;9585;51.018;4.282;2023-06-04T11:09:29;1.00;;;0.90;;
18905;SDS011;9585;51.018;4.282;2023-06-04T11:11:57;1.85;;;1.00;;
18905;SDS011;9585;51.018;4.282;2023-06-04T11:14:25;4.03;;;1.00;;
18905;SDS011;9585;51.018;4.282;2023-06-04T11:16:55;2.17;;;1.05;;
18905;SDS011;9585;51.018;4.282;2023-06-04T11:19:23;2.30;;;1.00;;
18905;SDS011;9585;51.018;4.282;2023-06-04T11:21:50;3.25;;;1.00;;
18905;SDS011;9585;51.018;4.282;2023-06-04T11:24:18;1.60;;;1.30;;
18905;SDS011;9585;51.018;4.282;2023-06-04T11:26:45;1.77;;;0.90;;
18905;SDS011;9585;51.018;4.282;2023-06-04T11:29:13;3.35;;;1.00;;
18905;SDS011;9585;51.018;4.282;2023-06-04T11:31:41;4.40;;;0.98;;
18905;SDS011;9585;51.018;4.282;2023-06-04T11:34:12;1.10;;;1.00;;
18905;SDS011;9585;51.018;4.282;2023-06-04T11:36:50;1.00;;;0.90;;
18905;SDS011;9585;51.018;4.282;2023-06-04T11:39:19;1.30;;;0.90;;
18905;SDS011;9585;51.018;4.282;2023-06-04T11:41:50;1.60;;;0.70;;
18905;SDS011;9585;51.018;4.282;2023-06-04T11:44:19;1.52;;;0.80;;
18905;SDS011;9585;51.018;4.282;2023-06-04T11:46:49;2.28;;;0.90;;
18905;SDS011;9585;51.018;4.282;2023-06-04T11:49:20;1.10;;;0.80;;
18905;SDS011;9585;51.018;4.282;2023-06-04T11:51:48;1.90;;;1.05;;
18905;SDS011;9585;51.018;4.282;2023-06-04T11:54:18;1.58;;;1.00;;
18905;SDS011;9585;51.018;4.282;2023-06-04T11:56:49;3.15;;;1.02;;
18905;SDS011;9585;51.018;4.282;2023-06-04T11:59:18;1.60;;;1.00;;
18905;SDS011;9585;51.018;4.282;2023-06-04T12:01:49;2.70;;;1.17;;
18905;SDS011;9585;51.018;4.282;2023-06-04T12:04:20;1.85;;;1.02;;
18905;SDS011;9585;51.018;4.282;2023-06-04T12:06:51;2.30;;;0.95;;
18905;SDS011;9585;51.018;4.282;2023-06-04T12:09:20;3.00;;;1.00;;
18905;SDS011;9585;51.018;4.282;2023-06-04T12:11:48;3.83;;;1.10;;
18905;SDS011;9585;51.018;4.282;2023-06-04T12:14:24;3.67;;;0.95;;
18905;SDS011;9585;51.018;4.282;2023-06-04T12:16:55;2.80;;;1.08;;
18905;SDS011;9585;51.018;4.282;2023-06-04T12:19:25;1.48;;;1.00;;
18905;SDS011;9585;51.018;4.282;2023-06-04T12:21:59;2.78;;;1.10;;
18905;SDS011;9585;51.018;4.282;2023-06-04T12:24:28;1.70;;;0.98;;
18905;SDS011;9585;51.018;4.282;2023-06-04T12:27:02;1.30;;;1.00;;
18905;SDS011;9585;51.018;4.282;2023-06-04T12:29:32;2.28;;;1.35;;
18905;SDS011;9585;51.018;4.282;2023-06-04T12:32:06;2.13;;;1.05;;
18905;SDS011;9585;51.018;4.282;2023-06-04T12:34:36;2.30;;;1.20;;
18905;SDS011;9585;51.018;4.282;2023-06-04T12:37:06;2.53;;;1.13;;
18905;SDS011;9585;51.018;4.282;2023-06-04T12:39:34;2.88;;;1.20;;
18905;SDS011;9585;51.018;4.282;2023-06-04T12:42:08;2.10;;;1.10;;
18905;SDS011;9585;51.018;4.282;2023-06-04T12:44:39;1.63;;;1.08;;
18905;SDS011;9585;51.018;4.282;2023-06-04T12:47:08;1.67;;;1.00;;
18905;SDS011;9585;51.018;4.282;2023-06-04T12:49:47;1.77;;;0.95;;
18905;SDS011;9585;51.018;4.282;2023-06-04T12:52:16;3.88;;;0.88;;
18905;SDS011;9585;51.018;4.282;2023-06-04T12:54:44;1.27;;;1.00;;
18905;SDS011;9585;51.018;4.282;2023-06-04T12:57:11;1.70;;;1.00;;
18905;SDS011;9585;51.018;4.282;2023-06-04T12:59:39;1.92;;;1.10;;
18905;SDS011;9585;51.018;4.282;2023-06-04T13:02:10;2.13;;;1.23;;
18905;SDS011;9585;51.018;4.282;2023-06-04T13:04:37;2.88;;;1.25;;
18905;SDS011;9585;51.018;4.282;2023-06-04T13:07:11;2.00;;;1.17;;
18905;SDS011;9585;51.018;4.282;2023-06-04T13:09:38;3.33;;;1.10;;
18905;SDS011;9585;51.018;4.282;2023-06-04T13:12:06;1.65;;;1.00;;
18905;SDS011;9585;51.018;4.282;2023-06-04T13:14:34;2.28;;;1.08;;
18905;SDS011;9585;51.018;4.282;2023-06-04T13:17:02;2.15;;;1.20;;
18905;SDS011;9585;51.018;4.282;2023-06-04T13:19:34;3.80;;;1.00;;
18905;SDS011;9585;51.018;4.282;2023-06-04T13:22:05;2.63;;;1.40;;
18905;SDS011;9585;51.018;4.282;2023-06-04T13:24:37;2.40;;;1.10;;
18905;SDS011;9585;51.018;4.282;2023-06-04T13:27:05;1.75;;;1.20;;
18905;SDS011;9585;51.018;4.282;2023-06-04T13:29:36;1.23;;;1.02;;
18905;SDS011;9585;51.018;4.282;2023-06-04T13:32:06;1.30;;;1.00;;
18905;SDS011;9585;51.018;4.282;2023-06-04T13:34:38;2.63;;;1.05;;
18905;SDS011;9585;51.018;4.282;2023-06-04T13:37:05;1.63;;;1.25;;
18905;SDS011;9585;51.018;4.282;2023-06-04T13:39:37;1.50;;;0.80;;
18905;SDS011;9585;51.018;4.282;2023-06-04T13:42:10;2.40;;;1.20;;
18905;SDS011;9585;51.018;4.282;2023-06-04T13:44:38;3.88;;;1.20;;
18905;SDS011;9585;51.018;4.282;2023-06-04T13:47:05;2.13;;;1.30;;
18905;SDS011;9585;51.018;4.282;2023-06-04T13:49:33;1.40;;;1.30;;
18905;SDS011;9585;51.018;4.282;2023-06-04T13:52:01;1.58;;;1.20;;
18905;SDS011;9585;51.018;4.282;2023-06-04T13:54:31;4.07;;;1.10;;
18905;SDS011;9585;51.018;4.282;2023-06-04T13:57:04;1.73;;;1.00;;
18905;SDS011;9585;51.018;4.282;2023-06-04T13:59:42;1.17;;;1.05;;
18905;SDS011;9585;51.018;4.282;2023-06-04T14:02:20;1.20;;;1.00;;
18905;SDS011;9585;51.018;4.282;2023-06-04T14:04:55;1.30;;;1.20;;
18905;SDS011;9585;51.018;4.282;2023-06-04T14:07:23;3.05;;;1.30;;
18905;SDS011;9585;51.018;4.282;2023-06-04T14:09:52;3.67;;;1.20;;
18905;SDS011;9585;51.018;4.282;2023-06-04T14:12:22;3.85;;;1.13;;
18905;SDS011;9585;51.018;4.282;2023-06-04T14:14:52;3.03;;;1.50;;
18905;SDS011;9585;51.018;4.282;2023-06-04T14:17:20;1.90;;;1.23;;
18905;SDS011;9585;51.018;4.282;2023-06-04T14:19:48;1.90;;;0.98;;
18905;SDS011;9585;51.018;4.282;2023-06-04T14:22:15;3.70;;;1.30;;
18905;SDS011;9585;51.018;4.282;2023-06-04T14:24:47;3.33;;;1.30;;
18905;SDS011;9585;51.018;4.282;2023-06-04T14:27:25;2.10;;;1.13;;
18905;SDS011;9585;51.018;4.282;2023-06-04T14:29:53;3.45;;;1.42;;
18905;SDS011;9585;51.018;4.282;2023-06-04T14:32:23;2.25;;;1.20;;
18905;SDS011;9585;51.018;4.282;2023-06-04T14:34:54;1.38;;;0.95;;
18905;SDS011;9585;51.018;4.282;2023-06-04T14:37:24;3.25;;;1.08;;
18905;SDS011;9585;51.018;4.282;2023-06-04T14:39:55;1.98;;;1.08;;
18905;SDS011;9585;51.018;4.282;2023-06-04T14:42:24;2.17;;;1.00;;
18905;SDS011;9585;51.018;4.282;2023-06-04T14:44:57;2.00;;;1.30;;
18905;SDS011;9585;51.018;4.282;2023-06-04T14:47:28;2.75;;;1.15;;
18905;SDS011;9585;51.018;4.282;2023-06-04T14:49:56;3.78;;;1.20;;
18905;SDS011;9585;51.018;4.282;2023-06-04T14:52:25;2.80;;;1.02;;
18905;SDS011;9585;51.018;4.282;2023-06-04T14:54:57;1.95;;;1.10;;
18905;SDS011;9585;51.018;4.282;2023-06-04T14:57:30;2.22;;;1.10;;
18905;SDS011;9585;51.018;4.282;2023-06-04T15:00:00;2.80;;;1.23;;
18905;SDS011;9585;51.018;4.282;2023-06-04T15:02:30;1.73;;;1.40;;
18905;SDS011;9585;51.018;4.282;2023-06-04T15:05:01;2.25;;;1.15;;
18905;SDS011;9585;51.018;4.282;2023-06-04T15:07:31;1.33;;;1.10;;
18905;SDS011;9585;51.018;4.282;2023-06-04T15:10:01;1.52;;;1.10;;
18905;SDS011;9585;51.018;4.282;2023-06-04T15:12:33;1.70;;;1.08;;
18905;SDS011;9585;51.018;4.282;2023-06-04T15:15:07;1.15;;;1.00;;